sensor_id;sensor_type;location;lat;lon;timestamp;P1;durP1;ratioP1;P2;durP2;ratioP2
69188;SDS011;56302;52.322;5.926;2022-12-20T00:01:18;6.47;;;2.10;;
69188;SDS011;56302;52.322;5.926;2022-12-20T00:03:49;5.18;;;2.70;;
69188;SDS011;56302;52.322;5.926;2022-12-20T00:06:16;5.40;;;2.40;;
69188;SDS011;56302;52.322;5.926;2022-12-20T00:08:42;7.38;;;3.38;;
69188;SDS011;56302;52.322;5.926;2022-12-20T00:11:09;4.78;;;2.13;;
69188;SDS011;56302;52.322;5.926;2022-12-20T00:13:36;5.40;;;2.40;;
69188;SDS011;56302;52.322;5.926;2022-12-20T00:16:05;5.32;;;2.22;;
69188;SDS011;56302;52.322;5.926;2022-12-20T00:18:33;5.78;;;2.65;;
69188;SDS011;56302;52.322;5.926;2022-12-20T00:20:59;5.72;;;2.50;;
69188;SDS011;56302;52.322;5.926;2022-12-20T00:23:27;5.30;;;2.38;;
69188;SDS011;56302;52.322;5.926;2022-12-20T00:25:58;5.53;;;2.47;;
69188;SDS011;56302;52.322;5.926;2022-12-20T00:28:32;7.05;;;2.40;;
69188;SDS011;56302;52.322;5.926;2022-12-20T00:30:58;5.35;;;2.20;;
69188;SDS011;56302;52.322;5.926;2022-12-20T00:33:24;6.13;;;2.60;;
69188;SDS011;56302;52.322;5.926;2022-12-20T00:35:50;6.88;;;2.53;;
69188;SDS011;56302;52.322;5.926;2022-12-20T00:38:18;6.22;;;2.40;;
69188;SDS011;56302;52.322;5.926;2022-12-20T00:40:43;4.60;;;2.20;;
69188;SDS011;56302;52.322;5.926;2022-12-20T00:43:09;3.80;;;2.10;;
69188;SDS011;56302;52.322;5.926;2022-12-20T00:45:34;5.18;;;2.70;;
69188;SDS011;56302;52.322;5.926;2022-12-20T00:48:00;7.00;;;1.93;;
69188;SDS011;56302;52.322;5.926;2022-12-20T00:50:25;6.07;;;2.37;;
69188;SDS011;56302;52.322;5.926;2022-12-20T00:52:51;6.37;;;2.60;;
69188;SDS011;56302;52.322;5.926;2022-12-20T00:55:16;4.45;;;2.30;;
69188;SDS011;56302;52.322;5.926;2022-12-20T00:57:42;5.90;;;2.00;;
69188;SDS011;56302;52.322;5.926;2022-12-20T01:00:08;5.37;;;2.63;;
69188;SDS011;56302;52.322;5.926;2022-12-20T01:02:33;5.47;;;1.92;;
69188;SDS011;56302;52.322;5.926;2022-12-20T01:04:59;5.72;;;2.40;;
69188;SDS011;56302;52.322;5.926;2022-12-20T01:07:25;4.15;;;2.28;;
69188;SDS011;56302;52.322;5.926;2022-12-20T01:09:50;4.10;;;2.03;;
69188;SDS011;56302;52.322;5.926;2022-12-20T01:12:16;8.00;;;2.30;;
69188;SDS011;56302;52.322;5.926;2022-12-20T01:14:42;5.80;;;2.53;;
69188;SDS011;56302;52.322;5.926;2022-12-20T01:17:08;4.80;;;2.35;;
69188;SDS011;56302;52.322;5.926;2022-12-20T01:19:33;4.67;;;2.30;;
69188;SDS011;56302;52.322;5.926;2022-12-20T01:21:59;6.05;;;2.05;;
69188;SDS011;56302;52.322;5.926;2022-12-20T01:24:24;4.07;;;2.17;;
69188;SDS011;56302;52.322;5.926;2022-12-20T01:26:50;6.83;;;2.50;;
69188;SDS011;56302;52.322;5.926;2022-12-20T01:29:15;6.35;;;2.13;;
69188;SDS011;56302;52.322;5.926;2022-12-20T01:31:41;5.57;;;2.28;;
69188;SDS011;56302;52.322;5.926;2022-12-20T01:34:07;6.33;;;1.93;;
69188;SDS011;56302;52.322;5.926;2022-12-20T01:36:34;4.10;;;2.03;;
69188;SDS011;56302;52.322;5.926;2022-12-20T01:39:12;4.28;;;2.17;;
69188;SDS011;56302;52.322;5.926;2022-12-20T01:41:39;5.05;;;2.10;;
69188;SDS011;56302;52.322;5.926;2022-12-20T01:46:40;5.75;;;2.08;;
69188;SDS011;56302;52.322;5.926;2022-12-20T01:49:13;8.50;;;2.30;;
69188;SDS011;56302;52.322;5.926;2022-12-20T01:51:46;8.00;;;2.00;;
69188;SDS011;56302;52.322;5.926;2022-12-20T01:56:53;5.57;;;1.97;;
69188;SDS011;56302;52.322;5.926;2022-12-20T01:59:23;6.53;;;2.53;;
69188;SDS011;56302;52.322;5.926;2022-12-20T02:01:50;7.65;;;2.55;;
69188;SDS011;56302;52.322;5.926;2022-12-20T02:04:16;5.30;;;2.25;;
69188;SDS011;56302;52.322;5.926;2022-12-20T02:06:42;5.63;;;2.40;;
69188;SDS011;56302;52.322;5.926;2022-12-20T02:09:08;5.40;;;2.50;;
69188;SDS011;56302;52.322;5.926;2022-12-20T02:20:17;6.03;;;2.42;;
69188;SDS011;56302;52.322;5.926;2022-12-20T02:26:08;4.72;;;2.58;;
69188;SDS011;56302;52.322;5.926;2022-12-20T02:29:15;7.57;;;2.88;;
69188;SDS011;56302;52.322;5.926;2022-12-20T02:34:34;7.65;;;2.65;;
69188;SDS011;56302;52.322;5.926;2022-12-20T02:37:01;8.02;;;2.88;;
69188;SDS011;56302;52.322;5.926;2022-12-20T02:39:28;6.72;;;2.75;;
69188;SDS011;56302;52.322;5.926;2022-12-20T02:42:00;6.63;;;2.88;;
69188;SDS011;56302;52.322;5.926;2022-12-20T02:44:34;6.05;;;2.78;;
69188;SDS011;56302;52.322;5.926;2022-12-20T02:50:30;9.75;;;2.75;;
69188;SDS011;56302;52.322;5.926;2022-12-20T02:53:00;6.18;;;2.63;;
69188;SDS011;56302;52.322;5.926;2022-12-20T02:55:32;6.82;;;2.70;;
69188;SDS011;56302;52.322;5.926;2022-12-20T02:58:28;6.63;;;2.90;;
69188;SDS011;56302;52.322;5.926;2022-12-20T03:01:08;7.35;;;2.90;;
69188;SDS011;56302;52.322;5.926;2022-12-20T03:03:37;6.65;;;2.95;;
69188;SDS011;56302;52.322;5.926;2022-12-20T03:06:03;7.95;;;3.63;;
69188;SDS011;56302;52.322;5.926;2022-12-20T03:08:28;6.87;;;3.17;;
69188;SDS011;56302;52.322;5.926;2022-12-20T03:10:54;6.28;;;3.35;;
69188;SDS011;56302;52.322;5.926;2022-12-20T03:13:21;7.05;;;3.30;;
69188;SDS011;56302;52.322;5.926;2022-12-20T03:15:48;6.20;;;3.40;;
69188;SDS011;56302;52.322;5.926;2022-12-20T03:18:14;6.85;;;3.35;;
69188;SDS011;56302;52.322;5.926;2022-12-20T03:20:39;6.70;;;3.90;;
69188;SDS011;56302;52.322;5.926;2022-12-20T03:23:05;6.03;;;2.77;;
69188;SDS011;56302;52.322;5.926;2022-12-20T03:25:30;5.47;;;3.03;;
69188;SDS011;56302;52.322;5.926;2022-12-20T03:27:56;5.97;;;3.27;;
69188;SDS011;56302;52.322;5.926;2022-12-20T03:30:22;6.85;;;2.72;;
69188;SDS011;56302;52.322;5.926;2022-12-20T03:32:47;8.73;;;3.83;;
69188;SDS011;56302;52.322;5.926;2022-12-20T03:35:13;8.63;;;3.40;;
69188;SDS011;56302;52.322;5.926;2022-12-20T03:37:38;7.20;;;3.20;;
69188;SDS011;56302;52.322;5.926;2022-12-20T03:40:05;7.03;;;2.70;;
69188;SDS011;56302;52.322;5.926;2022-12-20T03:42:31;5.00;;;2.57;;
69188;SDS011;56302;52.322;5.926;2022-12-20T03:44:56;5.97;;;2.30;;
69188;SDS011;56302;52.322;5.926;2022-12-20T03:47:22;6.30;;;2.57;;
69188;SDS011;56302;52.322;5.926;2022-12-20T03:49:47;5.27;;;2.53;;
69188;SDS011;56302;52.322;5.926;2022-12-20T03:52:13;5.63;;;2.50;;
69188;SDS011;56302;52.322;5.926;2022-12-20T03:54:39;5.03;;;2.60;;
69188;SDS011;56302;52.322;5.926;2022-12-20T03:57:04;8.50;;;2.92;;
69188;SDS011;56302;52.322;5.926;2022-12-20T03:59:31;6.53;;;2.75;;
69188;SDS011;56302;52.322;5.926;2022-12-20T04:01:57;5.80;;;2.78;;
69188;SDS011;56302;52.322;5.926;2022-12-20T04:04:22;5.40;;;2.70;;
69188;SDS011;56302;52.322;5.926;2022-12-20T04:06:48;5.47;;;2.57;;
69188;SDS011;56302;52.322;5.926;2022-12-20T04:09:14;4.33;;;2.37;;
69188;SDS011;56302;52.322;5.926;2022-12-20T04:11:40;5.05;;;2.50;;
69188;SDS011;56302;52.322;5.926;2022-12-20T04:14:05;7.23;;;2.70;;
69188;SDS011;56302;52.322;5.926;2022-12-20T04:16:31;4.97;;;2.28;;
69188;SDS011;56302;52.322;5.926;2022-12-20T04:18:57;10.63;;;2.97;;
69188;SDS011;56302;52.322;5.926;2022-12-20T04:21:23;6.47;;;2.60;;
69188;SDS011;56302;52.322;5.926;2022-12-20T04:23:54;5.35;;;2.30;;
69188;SDS011;56302;52.322;5.926;2022-12-20T04:26:20;6.88;;;2.58;;
69188;SDS011;56302;52.322;5.926;2022-12-20T04:28:45;4.90;;;2.20;;
69188;SDS011;56302;52.322;5.926;2022-12-20T04:31:11;6.57;;;2.47;;
69188;SDS011;56302;52.322;5.926;2022-12-20T04:33:37;7.00;;;2.43;;
69188;SDS011;56302;52.322;5.926;2022-12-20T04:36:03;5.90;;;2.38;;
69188;SDS011;56302;52.322;5.926;2022-12-20T04:38:30;4.38;;;2.38;;
69188;SDS011;56302;52.322;5.926;2022-12-20T04:40:55;5.67;;;2.50;;
69188;SDS011;56302;52.322;5.926;2022-12-20T04:43:22;5.68;;;2.13;;
69188;SDS011;56302;52.322;5.926;2022-12-20T04:45:49;8.38;;;3.33;;
69188;SDS011;56302;52.322;5.926;2022-12-20T04:48:16;4.90;;;2.10;;
69188;SDS011;56302;52.322;5.926;2022-12-20T04:50:46;7.28;;;2.63;;
69188;SDS011;56302;52.322;5.926;2022-12-20T04:53:12;4.77;;;2.07;;
69188;SDS011;56302;52.322;5.926;2022-12-20T04:55:57;5.75;;;2.20;;
69188;SDS011;56302;52.322;5.926;2022-12-20T04:58:22;4.63;;;2.10;;
69188;SDS011;56302;52.322;5.926;2022-12-20T05:00:47;4.80;;;2.10;;
69188;SDS011;56302;52.322;5.926;2022-12-20T05:03:13;5.73;;;2.57;;
69188;SDS011;56302;52.322;5.926;2022-12-20T05:05:39;5.57;;;2.50;;
69188;SDS011;56302;52.322;5.926;2022-12-20T05:08:04;5.25;;;2.28;;
69188;SDS011;56302;52.322;5.926;2022-12-20T05:10:39;6.90;;;2.20;;
69188;SDS011;56302;52.322;5.926;2022-12-20T05:13:05;4.55;;;2.13;;
69188;SDS011;56302;52.322;5.926;2022-12-20T05:15:31;5.23;;;2.40;;
69188;SDS011;56302;52.322;5.926;2022-12-20T05:17:56;5.40;;;1.92;;
69188;SDS011;56302;52.322;5.926;2022-12-20T05:20:23;4.30;;;2.33;;
69188;SDS011;56302;52.322;5.926;2022-12-20T05:22:52;8.80;;;2.33;;
69188;SDS011;56302;52.322;5.926;2022-12-20T05:25:41;5.85;;;2.35;;
69188;SDS011;56302;52.322;5.926;2022-12-20T05:28:28;5.95;;;2.47;;
69188;SDS011;56302;52.322;5.926;2022-12-20T05:30:54;5.00;;;2.13;;
69188;SDS011;56302;52.322;5.926;2022-12-20T05:33:19;4.83;;;2.43;;
69188;SDS011;56302;52.322;5.926;2022-12-20T05:35:45;5.60;;;2.57;;
69188;SDS011;56302;52.322;5.926;2022-12-20T05:38:10;5.43;;;2.40;;
69188;SDS011;56302;52.322;5.926;2022-12-20T05:40:36;8.73;;;2.57;;
69188;SDS011;56302;52.322;5.926;2022-12-20T05:43:02;5.97;;;2.60;;
69188;SDS011;56302;52.322;5.926;2022-12-20T05:45:28;6.40;;;2.63;;
69188;SDS011;56302;52.322;5.926;2022-12-20T05:47:53;5.53;;;2.87;;
69188;SDS011;56302;52.322;5.926;2022-12-20T05:50:19;7.30;;;2.65;;
69188;SDS011;56302;52.322;5.926;2022-12-20T05:52:44;5.60;;;2.50;;
69188;SDS011;56302;52.322;5.926;2022-12-20T05:55:10;5.27;;;2.37;;
69188;SDS011;56302;52.322;5.926;2022-12-20T05:57:35;5.45;;;2.33;;
69188;SDS011;56302;52.322;5.926;2022-12-20T06:00:02;5.75;;;2.60;;
69188;SDS011;56302;52.322;5.926;2022-12-20T06:02:28;6.35;;;3.30;;
69188;SDS011;56302;52.322;5.926;2022-12-20T06:04:54;7.70;;;3.03;;
69188;SDS011;56302;52.322;5.926;2022-12-20T06:07:20;6.60;;;2.90;;
69188;SDS011;56302;52.322;5.926;2022-12-20T06:09:45;5.83;;;2.70;;
69188;SDS011;56302;52.322;5.926;2022-12-20T06:12:11;6.60;;;2.97;;
69188;SDS011;56302;52.322;5.926;2022-12-20T06:14:37;6.82;;;3.13;;
69188;SDS011;56302;52.322;5.926;2022-12-20T06:17:03;6.85;;;3.10;;
69188;SDS011;56302;52.322;5.926;2022-12-20T06:19:29;6.53;;;3.42;;
69188;SDS011;56302;52.322;5.926;2022-12-20T06:21:54;5.70;;;3.50;;
69188;SDS011;56302;52.322;5.926;2022-12-20T06:24:20;7.72;;;3.60;;
69188;SDS011;56302;52.322;5.926;2022-12-20T06:26:49;7.30;;;3.55;;
69188;SDS011;56302;52.322;5.926;2022-12-20T06:29:15;7.05;;;3.38;;
69188;SDS011;56302;52.322;5.926;2022-12-20T06:31:42;6.37;;;3.07;;
69188;SDS011;56302;52.322;5.926;2022-12-20T06:34:07;7.00;;;3.25;;
69188;SDS011;56302;52.322;5.926;2022-12-20T06:36:33;5.70;;;3.17;;
69188;SDS011;56302;52.322;5.926;2022-12-20T06:38:59;6.13;;;3.28;;
69188;SDS011;56302;52.322;5.926;2022-12-20T06:41:25;8.07;;;3.65;;
69188;SDS011;56302;52.322;5.926;2022-12-20T06:43:50;7.20;;;3.40;;
69188;SDS011;56302;52.322;5.926;2022-12-20T06:46:16;6.95;;;3.15;;
69188;SDS011;56302;52.322;5.926;2022-12-20T06:48:41;5.55;;;3.10;;
69188;SDS011;56302;52.322;5.926;2022-12-20T06:51:07;6.27;;;2.73;;
69188;SDS011;56302;52.322;5.926;2022-12-20T06:53:32;7.27;;;2.90;;
69188;SDS011;56302;52.322;5.926;2022-12-20T06:55:58;6.75;;;3.47;;
69188;SDS011;56302;52.322;5.926;2022-12-20T06:58:23;6.97;;;2.90;;
69188;SDS011;56302;52.322;5.926;2022-12-20T07:00:49;5.30;;;2.50;;
69188;SDS011;56302;52.322;5.926;2022-12-20T07:03:14;5.88;;;2.55;;
69188;SDS011;56302;52.322;5.926;2022-12-20T07:05:40;8.13;;;3.50;;
69188;SDS011;56302;52.322;5.926;2022-12-20T07:08:06;6.53;;;2.23;;
69188;SDS011;56302;52.322;5.926;2022-12-20T07:10:32;6.60;;;2.80;;
69188;SDS011;56302;52.322;5.926;2022-12-20T07:12:59;4.75;;;2.80;;
69188;SDS011;56302;52.322;5.926;2022-12-20T07:15:24;6.13;;;2.90;;
69188;SDS011;56302;52.322;5.926;2022-12-20T07:17:50;4.50;;;2.60;;
69188;SDS011;56302;52.322;5.926;2022-12-20T07:20:15;6.27;;;2.80;;
69188;SDS011;56302;52.322;5.926;2022-12-20T07:22:41;4.55;;;2.63;;
69188;SDS011;56302;52.322;5.926;2022-12-20T07:25:07;5.60;;;2.50;;
69188;SDS011;56302;52.322;5.926;2022-12-20T07:27:33;4.63;;;2.20;;
69188;SDS011;56302;52.322;5.926;2022-12-20T07:29:59;6.07;;;3.17;;
69188;SDS011;56302;52.322;5.926;2022-12-20T07:32:24;5.20;;;2.90;;
69188;SDS011;56302;52.322;5.926;2022-12-20T07:34:50;6.27;;;2.53;;
69188;SDS011;56302;52.322;5.926;2022-12-20T07:37:15;5.97;;;2.70;;
69188;SDS011;56302;52.322;5.926;2022-12-20T07:39:41;6.13;;;2.60;;
69188;SDS011;56302;52.322;5.926;2022-12-20T07:42:07;4.27;;;2.10;;
69188;SDS011;56302;52.322;5.926;2022-12-20T07:44:33;9.98;;;2.80;;
69188;SDS011;56302;52.322;5.926;2022-12-20T07:46:59;5.23;;;2.33;;
69188;SDS011;56302;52.322;5.926;2022-12-20T07:49:24;5.05;;;2.40;;
69188;SDS011;56302;52.322;5.926;2022-12-20T07:51:51;7.20;;;2.37;;
69188;SDS011;56302;52.322;5.926;2022-12-20T07:54:28;6.35;;;2.15;;
69188;SDS011;56302;52.322;5.926;2022-12-20T07:56:58;7.82;;;1.80;;
69188;SDS011;56302;52.322;5.926;2022-12-20T07:59:29;6.03;;;1.95;;
69188;SDS011;56302;52.322;5.926;2022-12-20T08:02:00;5.22;;;1.92;;
69188;SDS011;56302;52.322;5.926;2022-12-20T08:04:26;4.60;;;2.10;;
69188;SDS011;56302;52.322;5.926;2022-12-20T08:06:54;6.43;;;2.15;;
69188;SDS011;56302;52.322;5.926;2022-12-20T08:09:23;6.15;;;2.20;;
69188;SDS011;56302;52.322;5.926;2022-12-20T08:11:52;9.15;;;2.05;;
69188;SDS011;56302;52.322;5.926;2022-12-20T08:14:18;4.10;;;2.20;;
69188;SDS011;56302;52.322;5.926;2022-12-20T08:16:44;6.22;;;1.85;;
69188;SDS011;56302;52.322;5.926;2022-12-20T08:19:10;7.65;;;2.00;;
69188;SDS011;56302;52.322;5.926;2022-12-20T08:21:36;5.15;;;2.45;;
69188;SDS011;56302;52.322;5.926;2022-12-20T08:24:02;7.47;;;2.37;;
69188;SDS011;56302;52.322;5.926;2022-12-20T08:26:27;6.32;;;2.30;;
69188;SDS011;56302;52.322;5.926;2022-12-20T08:28:54;8.43;;;2.50;;
69188;SDS011;56302;52.322;5.926;2022-12-20T08:31:20;4.78;;;2.38;;
69188;SDS011;56302;52.322;5.926;2022-12-20T08:33:46;6.93;;;2.50;;
69188;SDS011;56302;52.322;5.926;2022-12-20T08:36:12;5.43;;;2.30;;
69188;SDS011;56302;52.322;5.926;2022-12-20T08:38:38;6.10;;;2.50;;
69188;SDS011;56302;52.322;5.926;2022-12-20T08:41:08;5.38;;;2.20;;
69188;SDS011;56302;52.322;5.926;2022-12-20T08:43:36;4.70;;;2.00;;
69188;SDS011;56302;52.322;5.926;2022-12-20T08:46:02;5.55;;;2.47;;
69188;SDS011;56302;52.322;5.926;2022-12-20T08:48:28;6.88;;;2.08;;
69188;SDS011;56302;52.322;5.926;2022-12-20T08:50:54;7.10;;;1.70;;
69188;SDS011;56302;52.322;5.926;2022-12-20T08:53:21;5.47;;;2.10;;
69188;SDS011;56302;52.322;5.926;2022-12-20T08:55:47;4.40;;;2.20;;
69188;SDS011;56302;52.322;5.926;2022-12-20T08:58:12;5.88;;;2.70;;
69188;SDS011;56302;52.322;5.926;2022-12-20T09:00:39;6.18;;;2.47;;
69188;SDS011;56302;52.322;5.926;2022-12-20T09:03:05;6.72;;;2.00;;
69188;SDS011;56302;52.322;5.926;2022-12-20T09:05:31;4.50;;;2.30;;
69188;SDS011;56302;52.322;5.926;2022-12-20T09:07:57;5.83;;;2.43;;
69188;SDS011;56302;52.322;5.926;2022-12-20T09:10:22;5.80;;;2.50;;
69188;SDS011;56302;52.322;5.926;2022-12-20T09:12:48;7.03;;;2.30;;
69188;SDS011;56302;52.322;5.926;2022-12-20T09:15:13;7.43;;;2.50;;
69188;SDS011;56302;52.322;5.926;2022-12-20T09:17:39;5.50;;;2.23;;
69188;SDS011;56302;52.322;5.926;2022-12-20T09:20:05;5.75;;;2.17;;
69188;SDS011;56302;52.322;5.926;2022-12-20T09:22:31;5.80;;;2.33;;
69188;SDS011;56302;52.322;5.926;2022-12-20T09:24:56;4.72;;;1.80;;
69188;SDS011;56302;52.322;5.926;2022-12-20T09:27:22;4.83;;;2.20;;
69188;SDS011;56302;52.322;5.926;2022-12-20T09:29:47;5.88;;;1.85;;
69188;SDS011;56302;52.322;5.926;2022-12-20T09:32:13;5.37;;;2.27;;
69188;SDS011;56302;52.322;5.926;2022-12-20T09:34:38;5.63;;;2.10;;
69188;SDS011;56302;52.322;5.926;2022-12-20T09:37:04;7.40;;;2.40;;
69188;SDS011;56302;52.322;5.926;2022-12-20T09:39:30;6.20;;;2.17;;
69188;SDS011;56302;52.322;5.926;2022-12-20T09:41:56;6.47;;;2.33;;
69188;SDS011;56302;52.322;5.926;2022-12-20T09:44:29;6.25;;;2.40;;
69188;SDS011;56302;52.322;5.926;2022-12-20T09:47:00;6.20;;;2.13;;
69188;SDS011;56302;52.322;5.926;2022-12-20T09:49:54;6.65;;;2.35;;
69188;SDS011;56302;52.322;5.926;2022-12-20T09:55:18;8.67;;;2.30;;
69188;SDS011;56302;52.322;5.926;2022-12-20T09:57:58;7.03;;;2.15;;
69188;SDS011;56302;52.322;5.926;2022-12-20T10:00:43;5.85;;;2.05;;
69188;SDS011;56302;52.322;5.926;2022-12-20T10:03:30;5.80;;;2.13;;
69188;SDS011;56302;52.322;5.926;2022-12-20T10:06:03;5.20;;;2.55;;
69188;SDS011;56302;52.322;5.926;2022-12-20T10:08:43;6.17;;;1.63;;
69188;SDS011;56302;52.322;5.926;2022-12-20T10:14:07;5.57;;;2.10;;
69188;SDS011;56302;52.322;5.926;2022-12-20T10:17:01;4.90;;;2.33;;
69188;SDS011;56302;52.322;5.926;2022-12-20T10:22:37;6.57;;;2.00;;
69188;SDS011;56302;52.322;5.926;2022-12-20T10:25:19;4.63;;;2.20;;
69188;SDS011;56302;52.322;5.926;2022-12-20T10:27:49;6.50;;;2.20;;
69188;SDS011;56302;52.322;5.926;2022-12-20T10:30:20;5.55;;;2.00;;
69188;SDS011;56302;52.322;5.926;2022-12-20T10:32:48;4.95;;;2.33;;
69188;SDS011;56302;52.322;5.926;2022-12-20T10:35:37;6.27;;;2.30;;
69188;SDS011;56302;52.322;5.926;2022-12-20T10:38:06;4.85;;;2.17;;
69188;SDS011;56302;52.322;5.926;2022-12-20T10:40:40;5.53;;;2.28;;
69188;SDS011;56302;52.322;5.926;2022-12-20T10:43:18;4.68;;;2.10;;
69188;SDS011;56302;52.322;5.926;2022-12-20T10:46:05;4.93;;;2.10;;
69188;SDS011;56302;52.322;5.926;2022-12-20T10:48:33;4.83;;;2.00;;
69188;SDS011;56302;52.322;5.926;2022-12-20T10:51:02;6.05;;;2.38;;
69188;SDS011;56302;52.322;5.926;2022-12-20T10:53:35;5.95;;;2.13;;
69188;SDS011;56302;52.322;5.926;2022-12-20T10:58:50;7.80;;;2.50;;
69188;SDS011;56302;52.322;5.926;2022-12-20T11:01:21;7.73;;;2.20;;
69188;SDS011;56302;52.322;5.926;2022-12-20T11:03:52;10.63;;;2.72;;
69188;SDS011;56302;52.322;5.926;2022-12-20T11:06:27;7.82;;;2.45;;
69188;SDS011;56302;52.322;5.926;2022-12-20T11:14:40;6.60;;;2.23;;
69188;SDS011;56302;52.322;5.926;2022-12-20T11:19:48;6.55;;;2.63;;
69188;SDS011;56302;52.322;5.926;2022-12-20T11:25:45;5.50;;;2.70;;
69188;SDS011;56302;52.322;5.926;2022-12-20T11:31:18;5.35;;;2.20;;
69188;SDS011;56302;52.322;5.926;2022-12-20T11:34:03;6.13;;;2.75;;
69188;SDS011;56302;52.322;5.926;2022-12-20T11:36:39;5.50;;;2.33;;
69188;SDS011;56302;52.322;5.926;2022-12-20T11:47:30;7.88;;;2.75;;
69188;SDS011;56302;52.322;5.926;2022-12-20T11:53:00;5.38;;;2.90;;
69188;SDS011;56302;52.322;5.926;2022-12-20T11:55:34;8.87;;;2.90;;
69188;SDS011;56302;52.322;5.926;2022-12-20T12:00:59;6.47;;;3.33;;
69188;SDS011;56302;52.322;5.926;2022-12-20T12:05:59;5.70;;;2.83;;
69188;SDS011;56302;52.322;5.926;2022-12-20T12:08:31;5.40;;;2.87;;
69188;SDS011;56302;52.322;5.926;2022-12-20T12:11:18;7.20;;;2.80;;
69188;SDS011;56302;52.322;5.926;2022-12-20T12:13:47;6.70;;;3.25;;
69188;SDS011;56302;52.322;5.926;2022-12-20T12:16:25;6.37;;;3.13;;
69188;SDS011;56302;52.322;5.926;2022-12-20T12:18:56;5.68;;;2.92;;
69188;SDS011;56302;52.322;5.926;2022-12-20T12:21:24;7.63;;;3.38;;
69188;SDS011;56302;52.322;5.926;2022-12-20T12:24:03;5.07;;;3.05;;
69188;SDS011;56302;52.322;5.926;2022-12-20T12:26:48;6.72;;;3.45;;
69188;SDS011;56302;52.322;5.926;2022-12-20T12:29:15;5.73;;;3.27;;
69188;SDS011;56302;52.322;5.926;2022-12-20T12:31:43;5.10;;;3.03;;
69188;SDS011;56302;52.322;5.926;2022-12-20T12:42:41;6.03;;;2.90;;
69188;SDS011;56302;52.322;5.926;2022-12-20T12:48:06;5.22;;;2.50;;
69188;SDS011;56302;52.322;5.926;2022-12-20T12:50:41;5.30;;;2.60;;
69188;SDS011;56302;52.322;5.926;2022-12-20T12:53:12;5.90;;;2.75;;
69188;SDS011;56302;52.322;5.926;2022-12-20T12:55:46;5.13;;;2.85;;
69188;SDS011;56302;52.322;5.926;2022-12-20T13:00:52;8.23;;;3.08;;
69188;SDS011;56302;52.322;5.926;2022-12-20T13:11:33;4.70;;;2.88;;
69188;SDS011;56302;52.322;5.926;2022-12-20T13:16:45;6.10;;;2.97;;
69188;SDS011;56302;52.322;5.926;2022-12-20T13:19:32;6.45;;;3.35;;
69188;SDS011;56302;52.322;5.926;2022-12-20T13:24:49;4.65;;;2.55;;
69188;SDS011;56302;52.322;5.926;2022-12-20T13:27:53;5.93;;;3.08;;
69188;SDS011;56302;52.322;5.926;2022-12-20T13:37:52;6.15;;;3.30;;
69188;SDS011;56302;52.322;5.926;2022-12-20T13:40:19;6.63;;;3.60;;
69188;SDS011;56302;52.322;5.926;2022-12-20T13:43:14;6.00;;;3.35;;
69188;SDS011;56302;52.322;5.926;2022-12-20T13:45:42;5.82;;;3.53;;
69188;SDS011;56302;52.322;5.926;2022-12-20T13:48:11;5.75;;;3.33;;
69188;SDS011;56302;52.322;5.926;2022-12-20T13:50:46;6.50;;;3.45;;
69188;SDS011;56302;52.322;5.926;2022-12-20T13:53:15;6.57;;;3.13;;
69188;SDS011;56302;52.322;5.926;2022-12-20T13:55:43;5.45;;;3.15;;
69188;SDS011;56302;52.322;5.926;2022-12-20T13:58:13;6.20;;;3.58;;
69188;SDS011;56302;52.322;5.926;2022-12-20T14:00:42;6.30;;;3.75;;
69188;SDS011;56302;52.322;5.926;2022-12-20T14:03:29;6.07;;;3.78;;
69188;SDS011;56302;52.322;5.926;2022-12-20T14:06:02;6.30;;;3.60;;
69188;SDS011;56302;52.322;5.926;2022-12-20T14:08:33;8.35;;;3.75;;
69188;SDS011;56302;52.322;5.926;2022-12-20T14:11:06;5.85;;;3.75;;
69188;SDS011;56302;52.322;5.926;2022-12-20T14:13:38;6.57;;;4.28;;
69188;SDS011;56302;52.322;5.926;2022-12-20T14:16:12;6.07;;;3.65;;
69188;SDS011;56302;52.322;5.926;2022-12-20T14:18:40;5.63;;;3.20;;
69188;SDS011;56302;52.322;5.926;2022-12-20T14:21:12;9.20;;;3.22;;
69188;SDS011;56302;52.322;5.926;2022-12-20T14:23:38;5.90;;;3.35;;
69188;SDS011;56302;52.322;5.926;2022-12-20T14:26:14;7.95;;;3.50;;
69188;SDS011;56302;52.322;5.926;2022-12-20T14:28:47;6.85;;;3.40;;
69188;SDS011;56302;52.322;5.926;2022-12-20T14:31:22;5.68;;;3.63;;
69188;SDS011;56302;52.322;5.926;2022-12-20T14:33:49;5.75;;;3.80;;
69188;SDS011;56302;52.322;5.926;2022-12-20T14:38:44;6.30;;;3.60;;
69188;SDS011;56302;52.322;5.926;2022-12-20T14:44:03;5.65;;;3.15;;
69188;SDS011;56302;52.322;5.926;2022-12-20T14:46:45;7.80;;;2.97;;
69188;SDS011;56302;52.322;5.926;2022-12-20T14:51:46;5.45;;;3.28;;
69188;SDS011;56302;52.322;5.926;2022-12-20T14:54:16;6.38;;;3.53;;
69188;SDS011;56302;52.322;5.926;2022-12-20T14:56:52;8.20;;;4.07;;
69188;SDS011;56302;52.322;5.926;2022-12-20T14:59:22;7.37;;;3.03;;
69188;SDS011;56302;52.322;5.926;2022-12-20T15:01:52;8.02;;;3.15;;
69188;SDS011;56302;52.322;5.926;2022-12-20T15:04:20;7.18;;;3.58;;
69188;SDS011;56302;52.322;5.926;2022-12-20T15:06:46;5.95;;;3.35;;
69188;SDS011;56302;52.322;5.926;2022-12-20T15:09:12;6.70;;;3.77;;
69188;SDS011;56302;52.322;5.926;2022-12-20T15:11:38;5.78;;;3.65;;
69188;SDS011;56302;52.322;5.926;2022-12-20T15:17:10;7.50;;;4.20;;
69188;SDS011;56302;52.322;5.926;2022-12-20T15:19:38;6.07;;;4.10;;
69188;SDS011;56302;52.322;5.926;2022-12-20T15:22:04;6.55;;;3.58;;
69188;SDS011;56302;52.322;5.926;2022-12-20T15:24:30;6.97;;;4.30;;
69188;SDS011;56302;52.322;5.926;2022-12-20T15:26:56;7.22;;;4.30;;
69188;SDS011;56302;52.322;5.926;2022-12-20T15:29:23;7.10;;;4.17;;
69188;SDS011;56302;52.322;5.926;2022-12-20T15:31:50;7.35;;;4.50;;
69188;SDS011;56302;52.322;5.926;2022-12-20T15:34:19;9.52;;;5.05;;
69188;SDS011;56302;52.322;5.926;2022-12-20T15:36:49;9.45;;;5.20;;
69188;SDS011;56302;52.322;5.926;2022-12-20T15:39:15;9.07;;;4.50;;
69188;SDS011;56302;52.322;5.926;2022-12-20T15:41:42;9.93;;;5.23;;
69188;SDS011;56302;52.322;5.926;2022-12-20T15:44:12;8.30;;;4.65;;
69188;SDS011;56302;52.322;5.926;2022-12-20T15:46:40;7.70;;;5.07;;
69188;SDS011;56302;52.322;5.926;2022-12-20T15:49:07;8.57;;;4.97;;
69188;SDS011;56302;52.322;5.926;2022-12-20T15:51:40;8.77;;;5.55;;
69188;SDS011;56302;52.322;5.926;2022-12-20T15:56:48;9.30;;;5.07;;
69188;SDS011;56302;52.322;5.926;2022-12-20T15:59:14;9.60;;;5.90;;
69188;SDS011;56302;52.322;5.926;2022-12-20T16:01:40;8.75;;;5.65;;
69188;SDS011;56302;52.322;5.926;2022-12-20T16:04:06;8.95;;;5.57;;
69188;SDS011;56302;52.322;5.926;2022-12-20T16:06:37;9.95;;;5.82;;
69188;SDS011;56302;52.322;5.926;2022-12-20T16:09:02;7.97;;;5.47;;
69188;SDS011;56302;52.322;5.926;2022-12-20T16:11:28;8.00;;;5.47;;
69188;SDS011;56302;52.322;5.926;2022-12-20T16:13:55;9.07;;;6.10;;
69188;SDS011;56302;52.322;5.926;2022-12-20T16:16:26;8.48;;;5.85;;
69188;SDS011;56302;52.322;5.926;2022-12-20T16:18:56;11.03;;;6.00;;
69188;SDS011;56302;52.322;5.926;2022-12-20T16:21:26;8.52;;;6.03;;
69188;SDS011;56302;52.322;5.926;2022-12-20T16:23:54;15.73;;;6.57;;
69188;SDS011;56302;52.322;5.926;2022-12-20T16:26:21;9.57;;;6.23;;
69188;SDS011;56302;52.322;5.926;2022-12-20T16:28:48;10.48;;;6.50;;
69188;SDS011;56302;52.322;5.926;2022-12-20T16:33:55;11.90;;;7.45;;
69188;SDS011;56302;52.322;5.926;2022-12-20T16:36:21;10.47;;;7.13;;
69188;SDS011;56302;52.322;5.926;2022-12-20T16:38:48;10.27;;;7.03;;
69188;SDS011;56302;52.322;5.926;2022-12-20T16:41:15;10.13;;;7.13;;
69188;SDS011;56302;52.322;5.926;2022-12-20T16:43:45;10.50;;;6.93;;
69188;SDS011;56302;52.322;5.926;2022-12-20T16:46:17;11.32;;;7.15;;
69188;SDS011;56302;52.322;5.926;2022-12-20T16:48:44;12.37;;;7.13;;
69188;SDS011;56302;52.322;5.926;2022-12-20T16:53:59;12.15;;;7.40;;
69188;SDS011;56302;52.322;5.926;2022-12-20T16:56:29;12.25;;;8.07;;
69188;SDS011;56302;52.322;5.926;2022-12-20T16:58:55;13.50;;;7.78;;